Aviation Digital Data Service (ADDS)

Output produced by METARs form (1403 UTC 27 June 2017)
found at http://aviationweather.gov/adds/metars/
 
KROC 271120Z 2712/2812 22008KT P6SM VCSH OVC050 
     FM271700 25014G20KT P6SM VCSH BKN045 
     FM280000 25010KT P6SM BKN120